createdAt,value
2023-03-11T00:01:31.793Z,99693.06
2023-03-11T00:04:00.965Z,99689.31
2023-03-11T00:06:30.218Z,99686.94
2023-03-11T00:09:02.939Z,99689.78
2023-03-11T00:11:31.683Z,99683.63
2023-03-11T00:14:01.515Z,99675.25
2023-03-11T00:16:30.037Z,99680.50
2023-03-11T00:19:02.023Z,99672.53
2023-03-11T00:21:35.700Z,99670.03
2023-03-11T00:24:08.875Z,99661.22
2023-03-11T00:26:37.724Z,99663.19
2023-03-11T00:29:06.492Z,99656.53
2023-03-11T00:31:35.728Z,99653.41
2023-03-11T00:34:21.880Z,99652.63
2023-03-11T00:36:53.241Z,99641.03
2023-03-11T00:39:23.579Z,99649.41
2023-03-11T00:41:56.931Z,99641.63
2023-03-11T00:44:25.418Z,99634.78
2023-03-11T00:46:53.271Z,99626.44
2023-03-11T00:49:21.303Z,99633.81
2023-03-11T00:51:51.926Z,99629.72
2023-03-11T00:54:20.316Z,99627.72
2023-03-11T00:56:48.660Z,99624.03
2023-03-11T00:59:19.326Z,99626.59
2023-03-11T01:01:47.897Z,99619.59
2023-03-11T01:04:16.973Z,99611.59
2023-03-11T01:06:46.321Z,99610.84
2023-03-11T01:09:16.337Z,99603.72
2023-03-11T01:11:45.903Z,99596.81
2023-03-11T01:14:31.933Z,99594.81
2023-03-11T01:16:59.978Z,99599.06
2023-03-11T01:19:27.932Z,99590.94
2023-03-11T01:21:55.832Z,99592.84
2023-03-11T01:24:24.825Z,99592.16
2023-03-11T01:26:56.869Z,99596.34
2023-03-11T01:29:25.861Z,99590.06
2023-03-11T01:31:53.882Z,99596.25
2023-03-11T01:34:21.920Z,99589.00
2023-03-11T01:36:55.770Z,99591.94
2023-03-11T01:39:23.892Z,99588.09
2023-03-11T01:41:53.591Z,99590.28
2023-03-11T01:44:22.423Z,99584.03
2023-03-11T01:46:54.111Z,99578.59
2023-03-11T01:49:27.303Z,99578.69
2023-03-11T01:52:01.363Z,99577.00
2023-03-11T01:54:32.345Z,99581.44
2023-03-11T01:57:02.099Z,99577.06
2023-03-11T01:59:34.727Z,99566.16
2023-03-11T02:02:28.819Z,99568.75
2023-03-11T02:04:57.458Z,99566.09
2023-03-11T02:07:25.772Z,99553.09
2023-03-11T02:10:02.528Z,99550.78
2023-03-11T02:12:31.933Z,99550.78
2023-03-11T02:15:00.785Z,99546.03
2023-03-11T02:17:35.814Z,99533.53
2023-03-11T02:20:35.368Z,99536.06
2023-03-11T02:23:03.518Z,99548.03
2023-03-11T02:25:37.569Z,99547.16
2023-03-11T02:28:10.050Z,99533.97
2023-03-11T02:30:40.706Z,99536.16
2023-03-11T02:33:10.997Z,99544.13
2023-03-11T02:35:42.636Z,99538.06
2023-03-11T02:38:11.636Z,99547.06
2023-03-11T02:40:49.952Z,99532.06
2023-03-11T02:43:22.594Z,99527.81
2023-03-11T02:45:51.033Z,99531.16
2023-03-11T02:48:25.019Z,99528.38
2023-03-11T02:50:53.844Z,99526.56
2023-03-11T02:53:22.468Z,99517.56
2023-03-11T02:55:50.517Z,99520.31
2023-03-11T02:58:18.646Z,99519.16
2023-03-11T03:00:50.542Z,99512.94
2023-03-11T03:03:18.671Z,99513.56
2023-03-11T03:05:50.262Z,99515.19
2023-03-11T03:08:21.848Z,99512.34
2023-03-11T03:10:50.328Z,99511.28
2023-03-11T03:13:18.393Z,99511.50
2023-03-11T03:15:47.319Z,99502.75
2023-03-11T03:18:17.101Z,99502.75
2023-03-11T03:20:45.280Z,99504.19
2023-03-11T03:23:14.458Z,99500.09
2023-03-11T03:25:44.038Z,99490.84
2023-03-11T03:28:15.388Z,99488.19
2023-03-11T03:30:45.690Z,99485.25
2023-03-11T03:33:14.009Z,99480.03
2023-03-11T03:35:44.940Z,99478.97
2023-03-11T03:38:15.484Z,99481.31
2023-03-11T03:40:47.881Z,99489.97
2023-03-11T03:43:15.781Z,99484.56
2023-03-11T03:45:45.613Z,99484.81
2023-03-11T03:48:13.778Z,99488.34
2023-03-11T03:50:44.675Z,99490.69
2023-03-11T03:53:12.700Z,99478.16
2023-03-11T03:55:40.679Z,99482.53
2023-03-11T03:58:09.236Z,99490.50
2023-03-11T04:00:37.795Z,99479.94
2023-03-11T04:03:07.028Z,99464.09
2023-03-11T04:05:35.411Z,99470.06
2023-03-11T04:08:03.610Z,99462.75
2023-03-11T04:10:32.748Z,99460.78
2023-03-11T04:13:00.994Z,99449.50
2023-03-11T04:15:29.833Z,99451.09
2023-03-11T04:18:05.949Z,99449.84
2023-03-11T04:20:34.348Z,99454.56
2023-03-11T04:23:02.550Z,99443.91
2023-03-11T04:25:30.989Z,99441.91
2023-03-11T04:28:00.156Z,99445.94
2023-03-11T04:30:29.124Z,99444.66
2023-03-11T04:32:57.254Z,99444.97
2023-03-11T04:35:29.078Z,99443.09
2023-03-11T04:37:59.517Z,99443.09
2023-03-11T04:40:28.675Z,99446.06
2023-03-11T04:42:58.527Z,99444.78
2023-03-11T04:45:26.323Z,99461.94
2023-03-11T04:47:54.351Z,99446.16
2023-03-11T04:50:22.325Z,99450.56
2023-03-11T04:52:50.627Z,99439.63
2023-03-11T04:55:21.233Z,99439.72
2023-03-11T04:57:51.586Z,99430.94
2023-03-11T05:00:25.162Z,99433.22
2023-03-11T05:02:53.599Z,99423.69
2023-03-11T05:05:22.122Z,99425.91
2023-03-11T05:07:50.934Z,99423.00
2023-03-11T05:10:22.880Z,99414.66
2023-03-11T05:12:51.585Z,99422.50
2023-03-11T05:15:21.355Z,99421.06
2023-03-11T05:17:49.635Z,99414.53
2023-03-11T05:20:19.825Z,99426.28
2023-03-11T05:22:49.627Z,99421.53
2023-03-11T05:25:18.095Z,99421.75
2023-03-11T05:27:56.255Z,99441.09
2023-03-11T05:30:28.466Z,99435.38
2023-03-11T05:32:59.510Z,99439.41
2023-03-11T05:35:27.866Z,99426.56
2023-03-11T05:37:56.246Z,99434.06
2023-03-11T05:40:37.794Z,99432.63
2023-03-11T05:43:10.451Z,99420.19
2023-03-11T05:45:40.370Z,99434.22
2023-03-11T05:48:09.391Z,99425.06
2023-03-11T05:50:41.090Z,99418.69
2023-03-11T05:53:09.934Z,99412.81
2023-03-11T05:55:38.531Z,99425.59
2023-03-11T05:58:07.640Z,99427.38
2023-03-11T06:00:37.183Z,99428.50
2023-03-11T06:03:23.174Z,99416.84
2023-03-11T06:05:51.830Z,99420.97
2023-03-11T06:08:23.899Z,99415.88
2023-03-11T06:10:54.618Z,99412.72
2023-03-11T06:13:23.630Z,99415.75
2023-03-11T06:15:52.177Z,99412.72
2023-03-11T06:18:27.121Z,99400.31
2023-03-11T06:20:59.224Z,99402.34
2023-03-11T06:23:28.345Z,99406.59
2023-03-11T06:26:01.219Z,99394.44
2023-03-11T06:28:30.308Z,99401.34
2023-03-11T06:31:07.715Z,99399.38
2023-03-11T06:33:35.977Z,99396.16
2023-03-11T06:36:05.500Z,99396.75
2023-03-11T06:38:37.641Z,99386.72
2023-03-11T06:41:06.940Z,99390.44
2023-03-11T06:43:35.607Z,99387.81
2023-03-11T06:46:10.011Z,99387.94
2023-03-11T06:48:38.244Z,99374.66
2023-03-11T06:51:06.997Z,99383.25
2023-03-11T06:53:36.175Z,99377.38
2023-03-11T06:56:11.076Z,99369.91
2023-03-11T06:58:41.060Z,99378.31
2023-03-11T07:01:15.761Z,99368.56
2023-03-11T07:03:47.036Z,99367.69
2023-03-11T07:06:21.081Z,99368.00
2023-03-11T07:08:50.862Z,99369.81
2023-03-11T07:11:21.608Z,99366.53
2023-03-11T07:13:49.921Z,99359.41
2023-03-11T07:16:21.172Z,99359.69
2023-03-11T07:18:50.671Z,99344.84
2023-03-11T07:21:21.294Z,99351.88
2023-03-11T07:23:53.414Z,99351.47
2023-03-11T07:26:22.544Z,99345.34
2023-03-11T07:28:50.830Z,99334.28
2023-03-11T07:31:23.749Z,99339.75
2023-03-11T07:33:53.540Z,99338.22
2023-03-11T07:36:24.282Z,99336.38
2023-03-11T07:39:04.209Z,99338.81
2023-03-11T07:41:35.418Z,99319.28
2023-03-11T07:44:06.815Z,99324.84
2023-03-11T07:46:35.355Z,99317.88
2023-03-11T07:49:04.201Z,99316.00
2023-03-11T07:51:35.758Z,99315.13
2023-03-11T07:54:04.721Z,99312.56
2023-03-11T07:56:34.789Z,99300.13
2023-03-11T07:59:04.383Z,99306.31
2023-03-11T08:01:41.590Z,99306.44
2023-03-11T08:04:14.442Z,99306.38
2023-03-11T08:06:47.669Z,99315.03
2023-03-11T08:09:15.766Z,99313.97
2023-03-11T08:11:46.467Z,99315.41
2023-03-11T08:14:15.691Z,99302.72
2023-03-11T08:16:48.813Z,99291.13
2023-03-11T08:19:16.739Z,99283.81
2023-03-11T08:21:44.670Z,99282.00
2023-03-11T08:24:14.647Z,99274.53
2023-03-11T08:26:43.746Z,99278.31
2023-03-11T08:29:12.096Z,99282.53
2023-03-11T08:31:40.366Z,99286.19
2023-03-11T08:34:10.824Z,99280.28
2023-03-11T08:36:39.132Z,99275.78
2023-03-11T08:39:07.538Z,99272.66
2023-03-11T08:41:36.501Z,99261.63
2023-03-11T08:44:08.181Z,99262.69
2023-03-11T08:46:39.157Z,99261.22
2023-03-11T08:49:07.592Z,99252.44
2023-03-11T08:51:37.043Z,99241.13
2023-03-11T08:54:10.579Z,99238.69
2023-03-11T08:56:40.084Z,99248.28
2023-03-11T08:59:09.186Z,99251.72
2023-03-11T09:01:38.678Z,99248.28
2023-03-11T09:04:06.852Z,99248.34
2023-03-11T09:06:44.918Z,99246.19
2023-03-11T09:09:14.372Z,99241.94
2023-03-11T09:11:42.882Z,99245.28
2023-03-11T09:14:11.413Z,99248.97
2023-03-11T09:16:40.505Z,99253.66
2023-03-11T09:19:08.521Z,99249.38
2023-03-11T09:21:37.625Z,99232.03
2023-03-11T09:24:10.403Z,99233.03
2023-03-11T09:26:39.849Z,99217.63
2023-03-11T09:29:07.876Z,99215.94
2023-03-11T09:31:36.433Z,99217.69
2023-03-11T09:34:05.110Z,99221.22
2023-03-11T09:36:33.801Z,99213.75
2023-03-11T09:39:04.844Z,99202.88
2023-03-11T09:41:58.806Z,99207.84
2023-03-11T09:44:48.659Z,99194.84
2023-03-11T09:47:29.169Z,99185.91
2023-03-11T09:50:15.362Z,99181.81
2023-03-11T09:52:57.260Z,99167.53
2023-03-11T09:55:28.643Z,99185.91
2023-03-11T09:57:58.519Z,99173.19
2023-03-11T10:00:26.646Z,99177.44
2023-03-11T10:02:55.508Z,99162.59
2023-03-11T10:05:28.989Z,99152.56
2023-03-11T10:08:16.742Z,99153.00
2023-03-11T10:10:52.213Z,99152.41
2023-03-11T10:13:34.537Z,99138.88
2023-03-11T10:16:30.195Z,99135.75
2023-03-11T10:19:08.848Z,99130.38
2023-03-11T10:22:15.376Z,99127.50
2023-03-11T10:24:58.568Z,99125.38
2023-03-11T10:27:33.649Z,99116.88
2023-03-11T10:30:29.628Z,99113.75
2023-03-11T10:33:12.801Z,99111.78
2023-03-11T10:35:42.756Z,99106.56
2023-03-11T10:38:35.595Z,99101.34
2023-03-11T10:41:39.602Z,99083.81
2023-03-11T10:44:15.111Z,99084.94
2023-03-11T10:46:43.985Z,99075.09
2023-03-11T10:49:16.120Z,99069.84
2023-03-11T10:51:50.171Z,99062.06
2023-03-11T10:54:28.802Z,99048.69
2023-03-11T10:57:04.678Z,99044.59
2023-03-11T10:59:38.338Z,99037.75
2023-03-11T11:02:43.827Z,99029.91
2023-03-11T11:05:20.591Z,99034.72
2023-03-11T11:07:50.072Z,99032.56
2023-03-11T11:10:25.686Z,99031.56
2023-03-11T11:12:59.736Z,99024.81
2023-03-11T11:15:27.897Z,99024.53
2023-03-11T11:18:26.294Z,99013.44
2023-03-11T11:21:07.641Z,99005.75
2023-03-11T11:23:49.505Z,99001.34
2023-03-11T11:26:21.980Z,98992.09
2023-03-11T11:29:15.081Z,98997.94
2023-03-11T11:31:45.638Z,98997.09
2023-03-11T11:34:35.368Z,98994.97
2023-03-11T11:37:06.704Z,99001.56
2023-03-11T11:39:52.213Z,98994.72
2023-03-11T11:42:21.284Z,98995.41
2023-03-11T11:44:53.997Z,98993.56
2023-03-11T11:47:35.919Z,98983.88
2023-03-11T11:50:07.612Z,98979.13
2023-03-11T11:52:38.464Z,98976.59
2023-03-11T11:55:25.700Z,98972.00
2023-03-11T11:57:54.042Z,98977.59
2023-03-11T12:00:46.527Z,98972.06
2023-03-11T12:03:40.222Z,98970.59
2023-03-11T12:06:18.229Z,98961.25
2023-03-11T12:09:24.576Z,98966.69
2023-03-11T12:12:17.209Z,98968.13
2023-03-11T12:14:48.432Z,98959.38
2023-03-11T12:17:18.575Z,98961.91
2023-03-11T12:19:53.264Z,98961.81
2023-03-11T12:22:46.443Z,98963.38
2023-03-11T12:25:25.613Z,98958.00
2023-03-11T12:28:15.066Z,98963.22
2023-03-11T12:30:47.187Z,98965.38
2023-03-11T12:33:25.733Z,98969.75
2023-03-11T12:35:59.170Z,98966.16
2023-03-11T12:38:33.415Z,98950.50
2023-03-11T12:41:31.360Z,98957.00
2023-03-11T12:44:22.997Z,98948.25
2023-03-11T12:47:03.214Z,98943.72
2023-03-11T12:49:43.757Z,98933.06
2023-03-11T12:52:11.915Z,98923.38
2023-03-11T12:54:45.119Z,98929.91
2023-03-11T12:57:19.723Z,98925.00
2023-03-11T13:00:19.163Z,98923.38
2023-03-11T13:02:59.263Z,98925.44
2023-03-11T13:05:45.612Z,98912.22
2023-03-11T13:08:25.461Z,98914.31
2023-03-11T13:10:56.570Z,98914.16
2023-03-11T13:13:36.717Z,98917.06
2023-03-11T13:16:15.373Z,98908.63
2023-03-11T13:18:45.081Z,98900.47
2023-03-11T13:21:34.604Z,98909.31
2023-03-11T13:24:34.813Z,98891.88
2023-03-11T13:27:14.930Z,98900.97
2023-03-11T13:30:01.236Z,98897.50
2023-03-11T13:33:17.152Z,98900.81
2023-03-11T13:35:52.315Z,98900.56
2023-03-11T13:38:29.768Z,98883.22
2023-03-11T13:40:58.740Z,98888.13
2023-03-11T13:43:27.597Z,98873.69
2023-03-11T13:46:01.765Z,98883.66
2023-03-11T13:48:46.357Z,98873.22
2023-03-11T13:51:23.525Z,98862.16
2023-03-11T13:53:57.491Z,98861.94
2023-03-11T13:56:32.741Z,98858.16
2023-03-11T13:59:39.166Z,98856.78
2023-03-11T14:02:17.567Z,98840.00
2023-03-11T14:04:51.808Z,98834.50
2023-03-11T14:07:39.002Z,98836.06
2023-03-11T14:10:26.860Z,98826.97
2023-03-11T14:13:07.107Z,98815.03
2023-03-11T14:15:45.292Z,98817.28
2023-03-11T14:18:39.809Z,98818.44
2023-03-11T14:21:14.724Z,98799.31
2023-03-11T14:23:48.809Z,98797.41
2023-03-11T14:26:35.939Z,98803.38
2023-03-11T14:29:17.916Z,98796.19
2023-03-11T14:31:47.151Z,98786.22
2023-03-11T14:34:19.089Z,98792.25
2023-03-11T14:36:49.940Z,98794.25
2023-03-11T14:39:36.529Z,98792.09
2023-03-11T14:42:04.585Z,98788.03
2023-03-11T14:44:36.889Z,98781.94
2023-03-11T14:47:30.577Z,98784.84
2023-03-11T14:49:59.991Z,98792.44
2023-03-11T14:52:42.755Z,98785.38
2023-03-11T14:55:35.466Z,98792.28
2023-03-11T14:58:11.869Z,98789.09
2023-03-11T15:00:45.578Z,98784.69
2023-03-11T15:03:23.933Z,98791.28
2023-03-11T15:06:07.893Z,98792.31
2023-03-11T15:08:44.301Z,98780.09
2023-03-11T15:11:12.920Z,98771.84
2023-03-11T15:13:44.033Z,98764.63
2023-03-11T15:16:24.628Z,98773.88
2023-03-11T15:18:55.475Z,98767.66
2023-03-11T15:21:25.454Z,98770.50
2023-03-11T15:24:00.365Z,98774.69
2023-03-11T15:26:30.800Z,98769.97
2023-03-11T15:29:19.203Z,98770.94
2023-03-11T15:31:48.896Z,98772.59
2023-03-11T15:34:17.323Z,98769.97
2023-03-11T15:36:59.746Z,98767.75
2023-03-11T15:39:33.903Z,98769.78
2023-03-11T15:42:06.669Z,98758.84
2023-03-11T15:44:42.094Z,98752.25
2023-03-11T15:47:15.455Z,98752.38
2023-03-11T15:49:44.138Z,98754.56
2023-03-11T15:52:13.557Z,98755.50
2023-03-11T15:54:54.503Z,98752.31
2023-03-11T15:57:26.923Z,98750.59
2023-03-11T16:00:01.640Z,98757.16
2023-03-11T16:02:31.746Z,98754.81
2023-03-11T16:05:01.327Z,98758.59
2023-03-11T16:07:38.994Z,98759.69
2023-03-11T16:10:10.114Z,98760.50
2023-03-11T16:12:49.248Z,98758.59
2023-03-11T16:15:33.847Z,98762.84
2023-03-11T16:18:09.028Z,98759.78
2023-03-11T16:20:48.796Z,98762.31
2023-03-11T16:23:23.147Z,98757.88
2023-03-11T16:25:54.712Z,98751.38
2023-03-11T16:28:23.535Z,98760.75
2023-03-11T16:30:54.645Z,98755.84
2023-03-11T16:33:23.532Z,98747.56
2023-03-11T16:35:52.172Z,98738.41
2023-03-11T16:38:23.297Z,98739.97
2023-03-11T16:40:59.798Z,98742.34
2023-03-11T16:43:29.710Z,98740.53
2023-03-11T16:45:59.473Z,98730.44
2023-03-11T16:48:33.196Z,98717.47
2023-03-11T16:51:03.179Z,98732.44
2023-03-11T16:53:31.164Z,98725.59
2023-03-11T16:56:01.930Z,98732.31
2023-03-11T16:58:30.262Z,98742.91
2023-03-11T17:01:00.374Z,98734.78
2023-03-11T17:03:34.443Z,98736.91
2023-03-11T17:06:09.784Z,98735.16
2023-03-11T17:08:40.942Z,98753.41
2023-03-11T17:11:15.990Z,98748.69
2023-03-11T17:13:44.165Z,98755.13
2023-03-11T17:16:12.791Z,98742.41
2023-03-11T17:18:42.187Z,98755.97
2023-03-11T17:21:14.990Z,98746.72
2023-03-11T17:23:43.832Z,98735.44
2023-03-11T17:26:15.896Z,98733.34
2023-03-11T17:28:45.056Z,98732.06
2023-03-11T17:31:15.664Z,98718.06
2023-03-11T17:33:44.304Z,98705.94
2023-03-11T17:36:17.642Z,98710.06
2023-03-11T17:38:47.236Z,98696.94
2023-03-11T17:41:17.434Z,98703.97
2023-03-11T17:43:46.074Z,98705.03
2023-03-11T17:46:16.545Z,98705.34
2023-03-11T17:48:48.412Z,98699.97
2023-03-11T17:51:20.225Z,98703.53
2023-03-11T17:53:50.004Z,98694.81
2023-03-11T17:56:22.214Z,98693.63
2023-03-11T17:58:51.825Z,98691.47
2023-03-11T18:01:22.460Z,98689.28
2023-03-11T18:03:51.787Z,98680.06
2023-03-11T18:06:21.263Z,98680.38
2023-03-11T18:08:55.399Z,98684.13
2023-03-11T18:11:28.155Z,98688.31
2023-03-11T18:13:56.518Z,98679.09
2023-03-11T18:16:28.267Z,98686.66
2023-03-11T18:18:58.379Z,98676.00
2023-03-11T18:21:29.488Z,98666.31
2023-03-11T18:24:01.072Z,98665.13
2023-03-11T18:26:32.398Z,98666.13
2023-03-11T18:29:01.302Z,98659.25
2023-03-11T18:31:34.970Z,98659.31
2023-03-11T18:34:05.622Z,98664.53
2023-03-11T18:36:36.674Z,98675.47
2023-03-11T18:39:11.577Z,98671.41
2023-03-11T18:41:42.813Z,98672.28
2023-03-11T18:44:19.244Z,98673.97
2023-03-11T18:46:47.749Z,98672.28
2023-03-11T18:49:17.269Z,98668.59
2023-03-11T18:51:48.156Z,98668.25
2023-03-11T18:54:16.295Z,98667.22
2023-03-11T18:56:45.187Z,98666.66
2023-03-11T18:59:17.053Z,98668.03
2023-03-11T19:01:45.173Z,98656.94
2023-03-11T19:04:13.217Z,98663.19
2023-03-11T19:06:41.809Z,98657.59
2023-03-11T19:09:11.257Z,98661.81
2023-03-11T19:11:56.638Z,98661.44
2023-03-11T19:14:25.128Z,98659.91
2023-03-11T19:16:57.050Z,98656.41
2023-03-11T19:19:26.602Z,98653.06
2023-03-11T19:21:54.705Z,98648.47
2023-03-11T19:24:24.087Z,98654.50
2023-03-11T19:26:52.548Z,98651.81
2023-03-11T19:29:21.957Z,98646.88
2023-03-11T19:31:51.054Z,98648.56
2023-03-11T19:34:23.147Z,98646.53
2023-03-11T19:36:51.276Z,98636.53
2023-03-11T19:39:19.516Z,98645.69
2023-03-11T19:41:47.589Z,98631.09
2023-03-11T19:44:20.847Z,98629.56
2023-03-11T19:46:49.227Z,98630.78
2023-03-11T19:49:17.516Z,98621.16
2023-03-11T19:51:50.626Z,98616.81
2023-03-11T19:54:22.048Z,98602.44
2023-03-11T19:56:51.177Z,98611.13
2023-03-11T19:59:19.610Z,98609.22
2023-03-11T20:01:47.851Z,98604.16
2023-03-11T20:04:16.932Z,98604.81
2023-03-11T20:06:45.764Z,98607.69
2023-03-11T20:09:17.257Z,98603.88
2023-03-11T20:11:49.251Z,98614.31
2023-03-11T20:14:19.097Z,98611.22
2023-03-11T20:16:47.675Z,98608.56
2023-03-11T20:19:15.961Z,98625.19
2023-03-11T20:21:45.945Z,98626.03
2023-03-11T20:24:14.630Z,98630.25
2023-03-11T20:26:43.216Z,98617.03
2023-03-11T20:29:11.601Z,98607.25
2023-03-11T20:31:42.739Z,98609.63
2023-03-11T20:34:12.650Z,98614.16
2023-03-11T20:36:44.837Z,98620.06
2023-03-11T20:39:16.509Z,98607.81
2023-03-11T20:41:45.385Z,98608.66
2023-03-11T20:44:14.559Z,98625.50
2023-03-11T20:46:43.499Z,98613.56
2023-03-11T20:49:12.704Z,98611.19
2023-03-11T20:51:44.180Z,98613.69
2023-03-11T20:54:15.589Z,98616.88
2023-03-11T20:56:44.153Z,98618.22
2023-03-11T20:59:15.262Z,98601.91
2023-03-11T21:01:43.998Z,98613.84
2023-03-11T21:04:16.342Z,98599.19
2023-03-11T21:06:50.260Z,98594.84
2023-03-11T21:09:23.503Z,98602.91
2023-03-11T21:11:57.721Z,98603.06
2023-03-11T21:14:28.934Z,98587.75
2023-03-11T21:16:57.434Z,98588.78
2023-03-11T21:19:25.663Z,98586.22
2023-03-11T21:21:57.686Z,98575.50
2023-03-11T21:24:25.919Z,98589.16
2023-03-11T21:26:56.743Z,98576.88
2023-03-11T21:29:27.175Z,98588.13
2023-03-11T21:31:55.656Z,98577.91
2023-03-11T21:34:24.182Z,98582.97
2023-03-11T21:36:54.908Z,98584.31
2023-03-11T21:39:23.463Z,98579.94
2023-03-11T21:41:55.149Z,98572.22
2023-03-11T21:44:23.865Z,98576.06
2023-03-11T21:46:52.519Z,98578.22
2023-03-11T21:49:23.468Z,98574.19
2023-03-11T21:51:51.529Z,98582.19
2023-03-11T21:54:19.523Z,98585.28
2023-03-11T21:56:47.521Z,98576.34
2023-03-11T21:59:40.738Z,98569.47
2023-03-11T22:02:16.487Z,98569.13
2023-03-11T22:04:46.211Z,98570.44
2023-03-11T22:07:14.445Z,98568.25
2023-03-11T22:09:45.204Z,98565.41
2023-03-11T22:12:15.420Z,98570.47
2023-03-11T22:14:44.052Z,98571.09
2023-03-11T22:17:13.958Z,98572.22
2023-03-11T22:19:42.823Z,98571.16
2023-03-11T22:22:11.075Z,98567.78
2023-03-11T22:24:39.614Z,98559.69
2023-03-11T22:27:07.942Z,98552.81
2023-03-11T22:29:38.232Z,98550.75
2023-03-11T22:32:11.288Z,98536.81
2023-03-11T22:34:39.961Z,98543.75
2023-03-11T22:37:08.759Z,98531.53
2023-03-11T22:39:37.380Z,98527.34
2023-03-11T22:42:05.830Z,98520.13
2023-03-11T22:44:34.313Z,98520.13
2023-03-11T22:47:02.318Z,98526.47
2023-03-11T22:49:30.563Z,98530.66
2023-03-11T22:51:58.841Z,98508.69
2023-03-11T22:54:26.898Z,98516.72
2023-03-11T22:56:56.139Z,98504.47
2023-03-11T22:59:27.449Z,98502.31
2023-03-11T23:01:55.692Z,98499.94
2023-03-11T23:04:24.226Z,98489.88
2023-03-11T23:06:54.656Z,98494.63
2023-03-11T23:09:23.190Z,98482.22
2023-03-11T23:11:52.387Z,98484.38
2023-03-11T23:14:30.688Z,98475.13
2023-03-11T23:17:10.432Z,98465.25
2023-03-11T23:19:40.588Z,98469.78
2023-03-11T23:22:10.167Z,98461.41
2023-03-11T23:24:43.662Z,98461.09
2023-03-11T23:27:11.456Z,98486.03
2023-03-11T23:29:39.596Z,98466.19
2023-03-11T23:32:08.870Z,98455.75
2023-03-11T23:34:38.280Z,98454.31
2023-03-11T23:37:07.536Z,98438.06
2023-03-11T23:39:36.150Z,98428.00
2023-03-11T23:42:18.635Z,98432.91
2023-03-11T23:45:00.668Z,98408.41
2023-03-11T23:47:29.402Z,98407.38
2023-03-11T23:49:58.586Z,98413.94
2023-03-11T23:52:32.369Z,98409.13
2023-03-11T23:55:00.699Z,98405.75
2023-03-11T23:57:28.982Z,98399.41
2023-03-11T23:59:57.652Z,98396.91
